Time;durP1;ratioP1;P1;durP2;ratioP2;P2;SDS_P1;SDS_P2;PMS_P1;PMS_P2;Temp;Humidity;BMP_temperature;BMP_pressure;BME280_temperature;BME280_humidity;BME280_pressure;Samples;Min_cycle;Max_cycle;Signal;HPM_P1;HPM_P2
2023/04/14 00:02:25;;;;;;;12.25;1.40;;;;;;;;;;5111516;28;20020;-77
2023/04/14 00:04:54;;;;;;;4.95;0.90;;;;;;;;;;5111996;28;20031;-77
2023/04/14 00:07:20;;;;;;;9.23;1.27;;;;;;;;;;5111884;28;20050;-77
2023/04/14 00:09:46;;;;;;;9.63;2.38;;;;;;;;;;5111536;28;20024;-77
2023/04/14 00:12:12;;;;;;;7.88;1.73;;;;;;;;;;5111629;28;20088;-78
2023/04/14 00:14:38;;;;;;;13.35;1.33;;;;;;;;;;5111562;28;20414;-77
2023/04/14 00:17:04;;;;;;;8.20;1.27;;;;;;;;;;5110178;28;20109;-77
2023/04/14 00:19:30;;;;;;;18.35;1.80;;;;;;;;;;5112709;28;20106;-77
2023/04/14 00:21:56;;;;;;;12.70;1.38;;;;;;;;;;5115997;28;20024;-77
2023/04/14 00:24:22;;;;;;;11.48;1.52;;;;;;;;;;5115545;28;20429;-77
2023/04/14 00:26:48;;;;;;;10.35;1.20;;;;;;;;;;5115287;28;20039;-79
2023/04/14 00:29:14;;;;;;;11.63;1.67;;;;;;;;;;5115634;28;20020;-77
2023/04/14 00:31:40;;;;;;;12.30;1.67;;;;;;;;;;5115357;27;20024;-78
2023/04/14 00:34:06;;;;;;;14.73;1.73;;;;;;;;;;5115646;28;20016;-78
2023/04/14 00:36:33;;;;;;;10.55;1.27;;;;;;;;;;5115308;28;20059;-77
2023/04/14 00:38:59;;;;;;;15.07;1.92;;;;;;;;;;5115261;28;20024;-79
2023/04/14 00:41:26;;;;;;;16.25;1.95;;;;;;;;;;5115230;28;20483;-78
2023/04/14 00:43:53;;;;;;;12.77;1.48;;;;;;;;;;5115241;28;20031;-77
2023/04/14 00:46:19;;;;;;;11.10;1.83;;;;;;;;;;5115298;28;20047;-77
2023/04/14 00:48:45;;;;;;;20.23;2.65;;;;;;;;;;5115359;28;20019;-77
2023/04/14 00:51:11;;;;;;;8.75;1.38;;;;;;;;;;5115086;28;20110;-77
2023/04/14 00:53:38;;;;;;;13.38;2.15;;;;;;;;;;5115257;28;20028;-77
2023/04/14 00:56:04;;;;;;;10.23;1.58;;;;;;;;;;5113936;28;20024;-78
2023/04/14 00:58:30;;;;;;;17.95;2.70;;;;;;;;;;5114856;28;20119;-76
2023/04/14 01:00:57;;;;;;;9.48;2.00;;;;;;;;;;5114851;28;20353;-77
2023/04/14 01:03:24;;;;;;;11.18;1.55;;;;;;;;;;5114832;28;20027;-78
2023/04/14 01:05:50;;;;;;;14.27;2.10;;;;;;;;;;5114969;28;20144;-77
2023/04/14 01:08:16;;;;;;;12.50;1.58;;;;;;;;;;5114744;28;20031;-76
2023/04/14 01:10:48;;;;;;;12.98;1.63;;;;;;;;;;5114740;28;20073;-77
2023/04/14 01:13:14;;;;;;;12.30;1.55;;;;;;;;;;5113562;28;20035;-76
2023/04/14 01:15:43;;;;;;;21.00;2.30;;;;;;;;;;5114657;28;20019;-78
2023/04/14 01:18:19;;;;;;;16.42;2.38;;;;;;;;;;5114634;28;20035;-78
2023/04/14 01:20:49;;;;;;;12.35;2.35;;;;;;;;;;5114496;28;20526;-77
2023/04/14 01:23:20;;;;;;;21.77;1.90;;;;;;;;;;5114595;28;20108;-77
2023/04/14 01:25:49;;;;;;;16.83;2.05;;;;;;;;;;5114483;28;20525;-77
2023/04/14 01:28:33;;;;;;;10.18;1.75;;;;;;;;;;5114246;28;20023;-77
2023/04/14 01:31:11;;;;;;;14.05;1.70;;;;;;;;;;5113438;28;20016;-77
2023/04/14 01:33:39;;;;;;;13.10;2.10;;;;;;;;;;5114196;28;20153;-78
2023/04/14 01:36:07;;;;;;;19.08;2.38;;;;;;;;;;5114012;28;20042;-77
2023/04/14 01:38:34;;;;;;;13.65;2.75;;;;;;;;;;5114122;28;20035;-77
2023/04/14 01:41:08;;;;;;;9.80;1.50;;;;;;;;;;5114080;28;20023;-77
2023/04/14 01:43:36;;;;;;;8.27;1.33;;;;;;;;;;5114047;28;20027;-78
2023/04/14 01:46:06;;;;;;;11.60;1.38;;;;;;;;;;5113824;28;20043;-78
2023/04/14 01:48:33;;;;;;;13.18;1.52;;;;;;;;;;5113710;28;20012;-77
2023/04/14 01:51:00;;;;;;;31.15;2.85;;;;;;;;;;5113994;28;20027;-77
2023/04/14 01:53:27;;;;;;;15.00;1.90;;;;;;;;;;5114033;28;20028;-77
2023/04/14 01:55:54;;;;;;;11.13;1.60;;;;;;;;;;5113846;28;20027;-76
2023/04/14 01:58:22;;;;;;;7.88;1.77;;;;;;;;;;5113528;28;20050;-77
2023/04/14 02:00:50;;;;;;;16.48;3.13;;;;;;;;;;5113720;28;20043;-78
2023/04/14 02:03:18;;;;;;;12.95;2.05;;;;;;;;;;5113813;28;20066;-76
2023/04/14 02:05:46;;;;;;;16.50;1.60;;;;;;;;;;5113683;28;20016;-78
2023/04/14 02:08:13;;;;;;;18.42;1.88;;;;;;;;;;5113749;28;20032;-77
2023/04/14 02:10:41;;;;;;;18.05;2.20;;;;;;;;;;5113407;28;20148;-77
2023/04/14 02:13:09;;;;;;;10.60;1.80;;;;;;;;;;5113546;28;20077;-76
2023/04/14 02:15:36;;;;;;;19.60;1.67;;;;;;;;;;5113424;28;20020;-76
2023/04/14 02:18:04;;;;;;;10.40;2.40;;;;;;;;;;5113288;28;20050;-76
2023/04/14 02:20:30;;;;;;;17.52;2.63;;;;;;;;;;5113444;28;20409;-76
2023/04/14 02:22:56;;;;;;;12.60;2.40;;;;;;;;;;5113172;28;20031;-76
2023/04/14 02:25:23;;;;;;;13.70;2.90;;;;;;;;;;5113364;28;20498;-78
2023/04/14 02:27:52;;;;;;;17.60;1.98;;;;;;;;;;5113047;28;20023;-76
2023/04/14 02:30:24;;;;;;;27.00;2.35;;;;;;;;;;5113082;28;20027;-76
2023/04/14 02:32:55;;;;;;;13.32;2.00;;;;;;;;;;5113170;28;20476;-77
2023/04/14 02:35:28;;;;;;;11.77;2.10;;;;;;;;;;5113272;28;20110;-77
2023/04/14 02:37:56;;;;;;;18.23;2.22;;;;;;;;;;5112964;28;20143;-75
2023/04/14 02:40:26;;;;;;;13.70;2.10;;;;;;;;;;5112901;28;20048;-75
2023/04/14 02:43:04;;;;;;;13.38;1.70;;;;;;;;;;5111606;28;20034;-77
2023/04/14 02:45:32;;;;;;;14.18;1.88;;;;;;;;;;5112448;28;20130;-76
2023/04/14 02:48:01;;;;;;;11.15;1.60;;;;;;;;;;5112838;28;20031;-76
2023/04/14 02:50:28;;;;;;;10.85;1.52;;;;;;;;;;5111473;28;20076;-76
2023/04/14 02:52:55;;;;;;;17.92;1.83;;;;;;;;;;5112810;28;20348;-77
2023/04/14 02:55:21;;;;;;;6.63;1.33;;;;;;;;;;5112529;28;20019;-76
2023/04/14 02:57:48;;;;;;;16.33;2.72;;;;;;;;;;5112444;28;20468;-77
2023/04/14 03:00:15;;;;;;;14.40;1.83;;;;;;;;;;5113099;28;20043;-82
2023/04/14 03:02:44;;;;;;;12.98;1.50;;;;;;;;;;5113199;28;20052;-83
2023/04/14 03:05:10;;;;;;;16.00;2.03;;;;;;;;;;5118028;28;20023;-83
2023/04/14 03:07:36;;;;;;;13.07;2.03;;;;;;;;;;5122325;28;20053;-82
2023/04/14 03:10:03;;;;;;;12.48;2.00;;;;;;;;;;5121280;28;20579;-82
2023/04/14 03:12:30;;;;;;;18.20;2.10;;;;;;;;;;5119618;28;20020;-84
2023/04/14 03:14:57;;;;;;;14.10;1.90;;;;;;;;;;5119263;28;20055;-84
2023/04/14 03:17:24;;;;;;;9.48;1.73;;;;;;;;;;5122773;28;20400;-84
2023/04/14 03:19:51;;;;;;;15.05;1.85;;;;;;;;;;5122575;28;20027;-85
2023/04/14 03:22:19;;;;;;;14.23;1.65;;;;;;;;;;5120340;28;20118;-84
2023/04/14 03:24:46;;;;;;;19.48;2.00;;;;;;;;;;5120197;28;20042;-85
2023/04/14 03:27:31;;;;;;;11.98;1.95;;;;;;;;;;5120479;28;20503;-85
2023/04/14 03:30:06;;;;;;;7.00;1.40;;;;;;;;;;5117938;28;20024;-84
2023/04/14 03:32:34;;;;;;;16.95;3.03;;;;;;;;;;5116335;28;20028;-85
2023/04/14 03:35:01;;;;;;;14.50;2.95;;;;;;;;;;5120604;28;20016;-84
2023/04/14 03:37:28;;;;;;;15.15;1.80;;;;;;;;;;5130162;28;20058;-85
2023/04/14 03:39:59;;;;;;;16.67;1.95;;;;;;;;;;5114500;28;20024;-84
2023/04/14 03:42:28;;;;;;;20.92;3.30;;;;;;;;;;5112281;28;20024;-85
2023/04/14 03:44:55;;;;;;;14.32;1.75;;;;;;;;;;5113079;28;20055;-84
2023/04/14 03:47:23;;;;;;;14.40;2.15;;;;;;;;;;5112871;28;20047;-84
2023/04/14 03:49:50;;;;;;;13.80;2.05;;;;;;;;;;5112653;28;20515;-85
2023/04/14 03:52:17;;;;;;;18.73;1.92;;;;;;;;;;5112639;28;20023;-83
2023/04/14 03:54:44;;;;;;;15.57;1.77;;;;;;;;;;5112239;28;20067;-85
2023/04/14 03:57:11;;;;;;;11.95;2.22;;;;;;;;;;5112416;28;20027;-83
2023/04/14 03:59:38;;;;;;;13.60;1.60;;;;;;;;;;5112579;28;20035;-85
2023/04/14 04:02:06;;;;;;;18.40;1.80;;;;;;;;;;5112455;28;20012;-85
2023/04/14 04:04:33;;;;;;;13.98;1.88;;;;;;;;;;5112442;28;20468;-84
2023/04/14 04:06:59;;;;;;;20.40;2.50;;;;;;;;;;5112319;28;20054;-84
2023/04/14 04:09:26;;;;;;;15.13;1.98;;;;;;;;;;5112115;28;20055;-83
2023/04/14 04:11:53;;;;;;;16.35;2.33;;;;;;;;;;5111947;28;20515;-84
2023/04/14 04:14:20;;;;;;;20.77;2.38;;;;;;;;;;5112435;28;20047;-84
2023/04/14 04:16:50;;;;;;;15.52;1.60;;;;;;;;;;5112053;28;20016;-85
2023/04/14 04:19:18;;;;;;;13.75;2.08;;;;;;;;;;5112240;28;20027;-83
2023/04/14 04:21:45;;;;;;;13.65;1.90;;;;;;;;;;5112035;28;20024;-84
2023/04/14 04:24:12;;;;;;;11.07;1.73;;;;;;;;;;5111941;28;20361;-84
2023/04/14 04:26:39;;;;;;;13.57;1.67;;;;;;;;;;5111780;28;20019;-84
2023/04/14 04:29:05;;;;;;;12.40;1.70;;;;;;;;;;5111703;28;20095;-84
2023/04/14 04:31:31;;;;;;;14.88;1.75;;;;;;;;;;5111812;28;20030;-83
2023/04/14 04:33:57;;;;;;;12.27;1.88;;;;;;;;;;5111974;28;20380;-85
2023/04/14 04:36:26;;;;;;;8.43;1.98;;;;;;;;;;5111905;28;20132;-84
2023/04/14 04:38:52;;;;;;;13.85;2.53;;;;;;;;;;5111752;28;20031;-84
2023/04/14 04:41:26;;;;;;;10.40;1.60;;;;;;;;;;5111913;28;20095;-84
2023/04/14 04:43:53;;;;;;;11.45;1.48;;;;;;;;;;5111709;28;20031;-84
2023/04/14 04:46:19;;;;;;;11.15;2.50;;;;;;;;;;5111869;28;20178;-84
2023/04/14 04:48:45;;;;;;;16.73;1.55;;;;;;;;;;5111903;28;20023;-84
2023/04/14 04:51:11;;;;;;;14.57;1.77;;;;;;;;;;5110553;28;20081;-84
2023/04/14 04:53:37;;;;;;;12.52;1.85;;;;;;;;;;5111957;28;20035;-84
2023/04/14 04:56:03;;;;;;;17.17;1.88;;;;;;;;;;5111976;28;20023;-85
2023/04/14 04:58:29;;;;;;;17.85;2.42;;;;;;;;;;5114292;28;20050;-85
2023/04/14 05:00:55;;;;;;;13.88;2.20;;;;;;;;;;5115271;28;20015;-83
2023/04/14 05:03:22;;;;;;;11.80;1.92;;;;;;;;;;5114597;28;20031;-83
2023/04/14 05:05:48;;;;;;;15.98;2.30;;;;;;;;;;5114217;28;20016;-84
2023/04/14 05:08:14;;;;;;;14.90;1.42;;;;;;;;;;5117769;28;20077;-82
2023/04/14 05:10:40;;;;;;;20.65;3.38;;;;;;;;;;5116490;28;20027;-84
2023/04/14 05:13:06;;;;;;;18.40;3.90;;;;;;;;;;5115487;28;20468;-84
2023/04/14 05:15:32;;;;;;;17.08;1.75;;;;;;;;;;5115437;28;20035;-86
2023/04/14 05:17:58;;;;;;;17.20;1.75;;;;;;;;;;5114819;28;20028;-85
2023/04/14 05:20:24;;;;;;;9.10;1.65;;;;;;;;;;5115061;28;20049;-84
2023/04/14 05:22:50;;;;;;;11.68;1.95;;;;;;;;;;5114823;28;20024;-85
2023/04/14 05:25:16;;;;;;;16.63;1.75;;;;;;;;;;5114893;28;20049;-84
2023/04/14 05:27:42;;;;;;;10.82;1.70;;;;;;;;;;5114906;28;20465;-83
2023/04/14 05:30:08;;;;;;;16.00;2.53;;;;;;;;;;5115266;28;20078;-85
2023/04/14 05:32:35;;;;;;;6.22;1.60;;;;;;;;;;5114960;28;20399;-85
2023/04/14 05:35:01;;;;;;;15.35;2.10;;;;;;;;;;5115213;28;20107;-85
2023/04/14 05:37:28;;;;;;;12.20;2.00;;;;;;;;;;5115191;28;20285;-84
2023/04/14 05:39:55;;;;;;;10.40;2.22;;;;;;;;;;5115758;28;20048;-85
2023/04/14 05:42:21;;;;;;;12.10;1.52;;;;;;;;;;5130536;28;20020;-85
2023/04/14 05:44:47;;;;;;;20.30;1.90;;;;;;;;;;5128802;28;20045;-85
2023/04/14 05:47:13;;;;;;;12.30;1.98;;;;;;;;;;5122451;28;20562;-84
2023/04/14 05:49:39;;;;;;;15.75;3.05;;;;;;;;;;5116808;28;20479;-85
2023/04/14 05:52:05;;;;;;;16.88;1.67;;;;;;;;;;5120976;28;20201;-84
2023/04/14 05:54:31;;;;;;;13.98;1.85;;;;;;;;;;5125130;28;20027;-84
2023/04/14 05:56:57;;;;;;;15.05;1.50;;;;;;;;;;5115395;28;20281;-85
2023/04/14 05:59:23;;;;;;;9.13;1.60;;;;;;;;;;5114731;28;20031;-86
2023/04/14 06:01:49;;;;;;;7.85;2.08;;;;;;;;;;5114662;28;20483;-85
2023/04/14 06:04:15;;;;;;;10.18;1.77;;;;;;;;;;5114433;28;20384;-84
2023/04/14 06:06:41;;;;;;;9.15;1.27;;;;;;;;;;5114682;28;20495;-85
2023/04/14 06:09:07;;;;;;;7.32;1.90;;;;;;;;;;5115147;28;20053;-85
2023/04/14 06:11:33;;;;;;;11.10;1.88;;;;;;;;;;5114171;28;20669;-83
2023/04/14 06:14:01;;;;;;;12.52;2.55;;;;;;;;;;5114049;28;20115;-85
2023/04/14 06:16:27;;;;;;;10.95;1.92;;;;;;;;;;5113896;28;20012;-84
2023/04/14 06:18:53;;;;;;;9.43;1.70;;;;;;;;;;5113539;28;20119;-83
2023/04/14 06:21:19;;;;;;;12.35;1.70;;;;;;;;;;5113886;28;20051;-83
2023/04/14 06:23:46;;;;;;;9.93;2.10;;;;;;;;;;5113555;28;20028;-81
2023/04/14 06:26:12;;;;;;;13.27;2.58;;;;;;;;;;5113427;28;20034;-76
2023/04/14 06:28:38;;;;;;;10.45;2.30;;;;;;;;;;5113336;28;20053;-77
2023/04/14 06:31:04;;;;;;;12.25;2.05;;;;;;;;;;5112956;28;20028;-77
2023/04/14 06:33:30;;;;;;;8.93;1.80;;;;;;;;;;5113222;28;20019;-77
2023/04/14 06:35:57;;;;;;;16.50;1.90;;;;;;;;;;5113132;28;20023;-76
2023/04/14 06:38:24;;;;;;;7.93;1.60;;;;;;;;;;5113132;28;20396;-76
2023/04/14 06:40:50;;;;;;;11.65;1.73;;;;;;;;;;5113006;28;20020;-78
2023/04/14 06:43:16;;;;;;;15.25;2.10;;;;;;;;;;5112949;28;20036;-78
2023/04/14 06:45:43;;;;;;;15.52;2.55;;;;;;;;;;5112946;28;20040;-78
2023/04/14 06:48:10;;;;;;;9.32;1.63;;;;;;;;;;5113105;28;20072;-77
2023/04/14 06:50:36;;;;;;;11.77;1.40;;;;;;;;;;5112653;28;20019;-78
2023/04/14 06:53:04;;;;;;;14.15;1.55;;;;;;;;;;5112902;28;20023;-77
2023/04/14 06:55:30;;;;;;;14.93;1.80;;;;;;;;;;5111470;28;20023;-77
2023/04/14 06:57:56;;;;;;;12.18;2.55;;;;;;;;;;5112558;28;20035;-77
2023/04/14 07:00:22;;;;;;;13.50;1.95;;;;;;;;;;5112585;28;20567;-76
2023/04/14 07:02:48;;;;;;;17.05;2.13;;;;;;;;;;5112755;28;20023;-75
2023/04/14 07:05:16;;;;;;;14.55;1.42;;;;;;;;;;5112504;28;20016;-77
2023/04/14 07:07:42;;;;;;;11.40;1.88;;;;;;;;;;5112462;28;20020;-76
2023/04/14 07:10:08;;;;;;;9.40;1.33;;;;;;;;;;5112398;28;20023;-76
2023/04/14 07:12:34;;;;;;;11.38;2.08;;;;;;;;;;5112448;28;20112;-78
2023/04/14 07:15:00;;;;;;;10.65;1.25;;;;;;;;;;5112862;28;20368;-76
2023/04/14 07:17:27;;;;;;;6.57;1.55;;;;;;;;;;5112245;28;20608;-76
2023/04/14 07:19:53;;;;;;;14.85;1.70;;;;;;;;;;5111991;28;20106;-76
2023/04/14 07:22:19;;;;;;;7.72;1.77;;;;;;;;;;5112177;28;20081;-76
2023/04/14 07:24:45;;;;;;;13.52;1.58;;;;;;;;;;5112173;28;20016;-76
2023/04/14 07:27:14;;;;;;;24.60;3.72;;;;;;;;;;5112000;28;20027;-75
2023/04/14 07:29:41;;;;;;;9.95;1.98;;;;;;;;;;5111398;28;20373;-75
2023/04/14 07:32:07;;;;;;;7.18;1.70;;;;;;;;;;5111885;28;20077;-76
2023/04/14 07:34:33;;;;;;;9.75;1.55;;;;;;;;;;5111896;28;20027;-76
2023/04/14 07:36:59;;;;;;;9.55;2.05;;;;;;;;;;5111897;28;20097;-76
2023/04/14 07:39:25;;;;;;;13.23;2.95;;;;;;;;;;5111826;28;20055;-76
2023/04/14 07:41:51;;;;;;;6.78;1.30;;;;;;;;;;5111874;28;20054;-76
2023/04/14 07:44:18;;;;;;;10.02;1.40;;;;;;;;;;5111942;28;20023;-76
2023/04/14 07:46:44;;;;;;;10.88;1.23;;;;;;;;;;5111567;28;20047;-77
2023/04/14 07:49:11;;;;;;;8.55;1.50;;;;;;;;;;5111779;28;20059;-77
2023/04/14 07:51:37;;;;;;;7.75;1.30;;;;;;;;;;5110481;28;20016;-75
2023/04/14 07:54:04;;;;;;;10.98;1.35;;;;;;;;;;5111866;28;20471;-75
2023/04/14 07:56:30;;;;;;;8.45;2.03;;;;;;;;;;5111804;28;20019;-76
2023/04/14 07:58:56;;;;;;;3.30;1.05;;;;;;;;;;5111524;28;20028;-76
2023/04/14 08:01:22;;;;;;;8.23;1.45;;;;;;;;;;5111781;28;20379;-76
2023/04/14 08:03:49;;;;;;;7.63;1.60;;;;;;;;;;5111471;28;20082;-77
2023/04/14 08:06:15;;;;;;;9.35;1.42;;;;;;;;;;5111444;28;20088;-77
2023/04/14 08:08:42;;;;;;;12.23;1.45;;;;;;;;;;5111855;28;20030;-79
2023/04/14 08:11:08;;;;;;;6.22;1.05;;;;;;;;;;5111503;28;20016;-79
2023/04/14 08:13:34;;;;;;;7.63;1.40;;;;;;;;;;5111697;28;20480;-80
2023/04/14 08:16:00;;;;;;;7.43;1.38;;;;;;;;;;5112172;28;20395;-80
2023/04/14 08:18:26;;;;;;;10.32;1.50;;;;;;;;;;5111991;28;20544;-79
2023/04/14 08:20:52;;;;;;;10.73;1.77;;;;;;;;;;5112380;28;20020;-80
2023/04/14 08:23:19;;;;;;;8.60;1.88;;;;;;;;;;5111988;28;20023;-80
2023/04/14 08:25:46;;;;;;;9.15;1.80;;;;;;;;;;5111769;28;20012;-82
2023/04/14 08:28:12;;;;;;;6.40;1.48;;;;;;;;;;5111617;28;20384;-80
2023/04/14 08:30:38;;;;;;;12.50;1.70;;;;;;;;;;5111426;28;20026;-80
2023/04/14 08:33:04;;;;;;;11.18;1.83;;;;;;;;;;5111864;28;20082;-81
2023/04/14 08:35:30;;;;;;;11.20;1.27;;;;;;;;;;5111472;28;20030;-81
2023/04/14 08:37:59;;;;;;;7.57;1.00;;;;;;;;;;5111153;28;20032;-80
2023/04/14 08:40:29;;;;;;;9.95;1.48;;;;;;;;;;5112603;28;20050;-80
2023/04/14 08:42:56;;;;;;;6.47;1.40;;;;;;;;;;5115715;28;20032;-80
2023/04/14 08:45:22;;;;;;;4.55;1.05;;;;;;;;;;5115298;28;20044;-81
2023/04/14 08:47:51;;;;;;;10.88;1.45;;;;;;;;;;5115454;28;20483;-80
2023/04/14 08:50:20;;;;;;;5.38;1.10;;;;;;;;;;5115220;28;20024;-81
2023/04/14 08:52:46;;;;;;;8.85;1.45;;;;;;;;;;5115252;28;20379;-81
2023/04/14 08:55:13;;;;;;;8.15;1.23;;;;;;;;;;5115346;28;20052;-80
2023/04/14 08:57:41;;;;;;;4.78;1.10;;;;;;;;;;5115054;28;20529;-81
2023/04/14 09:00:08;;;;;;;9.90;1.23;;;;;;;;;;5115262;28;20047;-80
2023/04/14 09:02:35;;;;;;;8.70;1.80;;;;;;;;;;5114950;28;20414;-81
2023/04/14 09:05:01;;;;;;;7.00;1.13;;;;;;;;;;5115230;28;20054;-80
2023/04/14 09:07:27;;;;;;;12.27;1.98;;;;;;;;;;5115178;28;20503;-80
2023/04/14 09:09:54;;;;;;;9.75;1.20;;;;;;;;;;5114789;28;20034;-80
2023/04/14 09:12:20;;;;;;;7.05;1.40;;;;;;;;;;5114733;28;20026;-80
2023/04/14 09:14:48;;;;;;;12.40;2.78;;;;;;;;;;5115075;28;20380;-80
2023/04/14 09:17:14;;;;;;;9.45;1.25;;;;;;;;;;5114633;28;20031;-80
2023/04/14 09:19:40;;;;;;;12.10;1.40;;;;;;;;;;5114642;28;20041;-81
2023/04/14 09:22:06;;;;;;;6.47;1.30;;;;;;;;;;5114757;28;20020;-81
2023/04/14 09:24:33;;;;;;;13.60;1.50;;;;;;;;;;5114773;28;20535;-81
2023/04/14 09:27:04;;;;;;;8.15;1.20;;;;;;;;;;5114648;28;20024;-80
2023/04/14 09:29:30;;;;;;;5.13;1.40;;;;;;;;;;5114698;28;20020;-78
2023/04/14 09:31:57;;;;;;;11.38;2.10;;;;;;;;;;5114496;28;20387;-80
2023/04/14 09:34:23;;;;;;;5.78;1.23;;;;;;;;;;5114898;28;20371;-81
2023/04/14 09:37:05;;;;;;;9.85;1.98;;;;;;;;;;5114738;28;20208;-80
2023/04/14 09:39:31;;;;;;;4.60;1.25;;;;;;;;;;5114605;28;20035;-81
2023/04/14 09:41:58;;;;;;;5.53;1.30;;;;;;;;;;5114351;28;20030;-81
2023/04/14 09:44:24;;;;;;;9.43;1.15;;;;;;;;;;5114707;28;20028;-82
2023/04/14 09:47:01;;;;;;;9.23;1.25;;;;;;;;;;5114308;28;20111;-81
2023/04/14 09:49:28;;;;;;;6.40;0.95;;;;;;;;;;5114166;28;20024;-79
2023/04/14 09:51:54;;;;;;;3.47;0.88;;;;;;;;;;5113738;28;20015;-81
2023/04/14 09:54:27;;;;;;;7.60;1.40;;;;;;;;;;5116953;28;20043;-80
2023/04/14 09:56:53;;;;;;;7.47;1.23;;;;;;;;;;5125424;28;20024;-80
2023/04/14 09:59:32;;;;;;;9.02;1.38;;;;;;;;;;5120685;28;20479;-81
2023/04/14 10:02:08;;;;;;;6.65;1.20;;;;;;;;;;5115133;28;20102;-80
2023/04/14 10:04:35;;;;;;;5.07;0.77;;;;;;;;;;5114456;28;20016;-81
2023/04/14 10:07:01;;;;;;;3.33;1.02;;;;;;;;;;5111996;27;20497;-75
2023/04/14 10:09:28;;;;;;;7.10;0.90;;;;;;;;;;5113376;28;20019;-76
2023/04/14 10:12:07;;;;;;;5.15;1.17;;;;;;;;;;5114070;28;20011;-78
2023/04/14 10:14:34;;;;;;;3.63;0.75;;;;;;;;;;5113940;28;20166;-75
2023/04/14 10:17:01;;;;;;;6.35;0.98;;;;;;;;;;5116270;27;20119;-77
2023/04/14 10:19:27;;;;;;;10.27;1.58;;;;;;;;;;5128226;27;20028;-79
2023/04/14 10:21:53;;;;;;;4.15;0.88;;;;;;;;;;5134097;27;20030;-77
2023/04/14 10:24:20;;;;;;;2.95;0.95;;;;;;;;;;5134227;27;20084;-77
2023/04/14 10:26:48;;;;;;;9.35;0.85;;;;;;;;;;5133895;27;20072;-78
2023/04/14 10:29:14;;;;;;;4.95;1.05;;;;;;;;;;5133781;27;20600;-77
2023/04/14 10:31:43;;;;;;;9.23;1.20;;;;;;;;;;5133805;27;20080;-77
2023/04/14 10:34:10;;;;;;;2.67;0.85;;;;;;;;;;5133786;27;20027;-76
2023/04/14 10:36:37;;;;;;;6.07;0.70;;;;;;;;;;5132610;27;20015;-78
2023/04/14 10:39:04;;;;;;;2.90;0.57;;;;;;;;;;5133663;27;20433;-76
2023/04/14 10:41:36;;;;;;;4.53;0.73;;;;;;;;;;5133683;27;20585;-76
2023/04/14 10:44:02;;;;;;;5.25;0.50;;;;;;;;;;5116889;27;20030;-73
2023/04/14 10:46:42;;;;;;;2.38;0.50;;;;;;;;;;5112523;28;20185;-73
2023/04/14 10:49:11;;;;;;;1.17;0.70;;;;;;;;;;5113089;28;20055;-77
2023/04/14 10:51:37;;;;;;;5.93;1.50;;;;;;;;;;5105247;28;20092;-68
2023/04/14 10:54:03;;;;;;;4.22;1.23;;;;;;;;;;5110167;28;20030;-72
2023/04/14 10:56:30;;;;;;;3.05;0.68;;;;;;;;;;5112477;28;20106;-72
2023/04/14 10:58:57;;;;;;;5.07;0.70;;;;;;;;;;5112628;28;20035;-71
2023/04/14 11:01:24;;;;;;;1.10;0.50;;;;;;;;;;5112473;28;20086;-73
2023/04/14 11:03:50;;;;;;;1.67;0.52;;;;;;;;;;5111789;28;20047;-74
2023/04/14 11:06:35;;;;;;;3.13;0.85;;;;;;;;;;5112477;28;20495;-69
2023/04/14 11:09:02;;;;;;;4.20;0.63;;;;;;;;;;5111161;28;20050;-71
2023/04/14 11:11:28;;;;;;;4.35;0.70;;;;;;;;;;5104301;28;20020;-70
2023/04/14 11:14:10;;;;;;;4.07;0.45;;;;;;;;;;5088429;28;20062;-67
2023/04/14 11:16:39;;;;;;;1.67;0.75;;;;;;;;;;5093725;28;20026;-70
2023/04/14 11:19:13;;;;;;;4.32;0.75;;;;;;;;;;5112079;28;20027;-72
2023/04/14 11:21:49;;;;;;;0.93;0.60;;;;;;;;;;5112236;28;20055;-74
2023/04/14 11:24:15;;;;;;;6.38;0.80;;;;;;;;;;5110185;28;20433;-72
2023/04/14 11:26:43;;;;;;;2.50;0.55;;;;;;;;;;5111107;28;20031;-71
2023/04/14 11:29:09;;;;;;;3.10;0.65;;;;;;;;;;5112134;28;20031;-73
2023/04/14 11:31:35;;;;;;;2.95;0.50;;;;;;;;;;5111625;28;20032;-67
2023/04/14 11:34:05;;;;;;;5.15;0.80;;;;;;;;;;5111834;28;20072;-68
2023/04/14 11:36:35;;;;;;;3.92;0.77;;;;;;;;;;5112058;28;20020;-69
2023/04/14 11:39:02;;;;;;;6.50;0.70;;;;;;;;;;5109173;28;20080;-69
2023/04/14 11:41:29;;;;;;;4.05;1.20;;;;;;;;;;5111842;28;20016;-70
2023/04/14 11:43:55;;;;;;;4.50;0.80;;;;;;;;;;5111658;28;20356;-68
2023/04/14 11:46:21;;;;;;;4.82;1.48;;;;;;;;;;5111368;28;20048;-71
2023/04/14 11:48:47;;;;;;;7.65;1.45;;;;;;;;;;5111783;28;20027;-71
2023/04/14 11:51:13;;;;;;;8.32;1.27;;;;;;;;;;5111617;28;20024;-71
2023/04/14 11:53:42;;;;;;;6.63;1.10;;;;;;;;;;5111953;28;20023;-68
2023/04/14 11:56:08;;;;;;;7.65;1.08;;;;;;;;;;5111582;28;20479;-67
2023/04/14 11:58:34;;;;;;;8.00;1.35;;;;;;;;;;5111806;28;20063;-66
2023/04/14 12:01:01;;;;;;;11.88;2.95;;;;;;;;;;5111541;28;20085;-66
2023/04/14 12:03:28;;;;;;;10.27;1.27;;;;;;;;;;5112075;28;20031;-67
2023/04/14 12:06:01;;;;;;;6.10;1.10;;;;;;;;;;5111622;28;20019;-68
2023/04/14 12:08:31;;;;;;;7.60;1.10;;;;;;;;;;5111565;28;20028;-67
2023/04/14 12:10:57;;;;;;;4.78;1.33;;;;;;;;;;5110237;28;20160;-67
2023/04/14 12:13:25;;;;;;;10.27;1.33;;;;;;;;;;5111486;28;20055;-66
2023/04/14 12:15:51;;;;;;;3.80;1.02;;;;;;;;;;5113057;28;20504;-65
2023/04/14 12:18:18;;;;;;;7.72;1.30;;;;;;;;;;5115523;28;20484;-67
2023/04/14 12:20:51;;;;;;;6.25;0.95;;;;;;;;;;5115677;28;20076;-68
2023/04/14 12:23:17;;;;;;;3.60;0.68;;;;;;;;;;5115572;28;20510;-68
2023/04/14 12:25:43;;;;;;;3.00;0.70;;;;;;;;;;5115546;28;20031;-67
2023/04/14 12:28:09;;;;;;;3.88;0.90;;;;;;;;;;5115542;28;20098;-66
2023/04/14 12:30:36;;;;;;;6.57;0.95;;;;;;;;;;5115495;28;20024;-66
2023/04/14 12:33:11;;;;;;;4.93;0.98;;;;;;;;;;5115542;28;20082;-66
2023/04/14 12:35:39;;;;;;;7.35;1.30;;;;;;;;;;5115322;28;20429;-67
2023/04/14 12:38:09;;;;;;;8.15;2.03;;;;;;;;;;5115180;28;20526;-68
2023/04/14 12:40:39;;;;;;;7.88;1.45;;;;;;;;;;5115327;28;20047;-70
2023/04/14 12:43:06;;;;;;;7.95;1.75;;;;;;;;;;5115433;28;20059;-69
2023/04/14 12:45:41;;;;;;;3.35;1.00;;;;;;;;;;5114945;28;20052;-69
2023/04/14 12:48:07;;;;;;;9.50;1.35;;;;;;;;;;5115226;28;20104;-68
2023/04/14 12:50:33;;;;;;;5.93;0.90;;;;;;;;;;5115120;28;20022;-68
2023/04/14 12:53:00;;;;;;;4.15;1.08;;;;;;;;;;5115048;28;20024;-67
2023/04/14 12:55:31;;;;;;;8.55;1.45;;;;;;;;;;5114804;28;20031;-66
2023/04/14 12:57:58;;;;;;;9.98;1.30;;;;;;;;;;5114611;28;20032;-67
2023/04/14 13:00:25;;;;;;;4.88;1.08;;;;;;;;;;5114940;28;20030;-66
2023/04/14 13:02:52;;;;;;;6.22;1.48;;;;;;;;;;5114831;28;20032;-66
2023/04/14 13:05:18;;;;;;;9.30;2.08;;;;;;;;;;5114934;28;20039;-65
2023/04/14 13:07:45;;;;;;;4.72;1.58;;;;;;;;;;5114601;28;20051;-67
2023/04/14 13:10:11;;;;;;;8.85;1.33;;;;;;;;;;5114581;28;20015;-65
2023/04/14 13:12:38;;;;;;;7.65;1.10;;;;;;;;;;5114783;28;20035;-65
2023/04/14 13:15:04;;;;;;;6.38;1.20;;;;;;;;;;5114569;28;20012;-66
2023/04/14 13:17:30;;;;;;;10.40;1.33;;;;;;;;;;5114731;28;20067;-67
2023/04/14 13:19:56;;;;;;;7.55;0.88;;;;;;;;;;5114604;28;20570;-65
2023/04/14 13:22:23;;;;;;;6.18;1.15;;;;;;;;;;5114201;28;20420;-66
2023/04/14 13:24:49;;;;;;;4.45;0.80;;;;;;;;;;5114414;28;20023;-68
2023/04/14 13:27:18;;;;;;;7.97;1.25;;;;;;;;;;5113349;28;20032;-69
2023/04/14 13:29:45;;;;;;;4.65;0.93;;;;;;;;;;5114458;28;20387;-69
2023/04/14 13:32:11;;;;;;;9.95;1.40;;;;;;;;;;5114245;28;20506;-65
2023/04/14 13:34:38;;;;;;;5.00;0.93;;;;;;;;;;5114265;28;20468;-66
2023/04/14 13:37:05;;;;;;;4.90;1.10;;;;;;;;;;5114129;28;20387;-63
2023/04/14 13:39:31;;;;;;;1.90;0.90;;;;;;;;;;5114336;28;20053;-63
2023/04/14 13:41:58;;;;;;;7.15;1.13;;;;;;;;;;5113961;28;20096;-63
2023/04/14 13:44:24;;;;;;;4.15;1.10;;;;;;;;;;5114061;28;20031;-64
2023/04/14 13:46:50;;;;;;;6.32;0.98;;;;;;;;;;5113564;28;20043;-64
2023/04/14 13:49:16;;;;;;;4.93;1.00;;;;;;;;;;5114036;28;20030;-64
2023/04/14 13:51:43;;;;;;;5.45;1.00;;;;;;;;;;5113900;28;20024;-63
2023/04/14 13:54:09;;;;;;;4.93;0.93;;;;;;;;;;5113977;28;20046;-65
2023/04/14 13:56:35;;;;;;;4.38;1.80;;;;;;;;;;5113749;28;20395;-66
2023/04/14 13:59:01;;;;;;;6.97;0.90;;;;;;;;;;5113943;28;20182;-63
2023/04/14 14:01:27;;;;;;;4.72;1.23;;;;;;;;;;5113504;28;20032;-64
2023/04/14 14:03:53;;;;;;;6.97;1.52;;;;;;;;;;5113559;28;20555;-65
2023/04/14 14:06:19;;;;;;;3.20;0.98;;;;;;;;;;5113626;28;20034;-64
2023/04/14 14:08:45;;;;;;;5.47;1.08;;;;;;;;;;5113628;28;20034;-66
2023/04/14 14:11:12;;;;;;;3.22;0.80;;;;;;;;;;5112731;28;20027;-65
2023/04/14 14:13:39;;;;;;;3.65;1.08;;;;;;;;;;5113554;28;20027;-66
2023/04/14 14:16:06;;;;;;;6.10;1.30;;;;;;;;;;5113254;28;20501;-66
2023/04/14 14:18:33;;;;;;;9.27;1.13;;;;;;;;;;5113073;28;20136;-67
2023/04/14 14:20:59;;;;;;;2.40;0.85;;;;;;;;;;5113291;28;20019;-66
2023/04/14 14:23:25;;;;;;;1.85;0.77;;;;;;;;;;5113493;28;20463;-68
2023/04/14 14:25:52;;;;;;;6.18;1.25;;;;;;;;;;5113032;28;20031;-71
2023/04/14 14:28:18;;;;;;;8.40;1.05;;;;;;;;;;5113205;28;20027;-68
2023/04/14 14:30:44;;;;;;;2.80;0.60;;;;;;;;;;5113167;28;20020;-67
2023/04/14 14:33:10;;;;;;;3.55;0.68;;;;;;;;;;5112778;28;20027;-67
2023/04/14 14:35:36;;;;;;;3.83;0.60;;;;;;;;;;5112939;28;20581;-68
2023/04/14 14:38:02;;;;;;;1.95;0.60;;;;;;;;;;5112450;28;20035;-68